sensor_id;sensor_type;location;lat;lon;timestamp;temperature;humidity
7202;DHT22;3642;52.506;13.304;2022-07-25T00:00:13;24.10;64.30
7202;DHT22;3642;52.506;13.304;2022-07-25T00:02:41;24.10;64.50
7202;DHT22;3642;52.506;13.304;2022-07-25T00:05:10;24.10;64.30
7202;DHT22;3642;52.506;13.304;2022-07-25T00:07:38;24.10;64.50
7202;DHT22;3642;52.506;13.304;2022-07-25T00:10:07;24.10;64.50
7202;DHT22;3642;52.506;13.304;2022-07-25T00:12:36;24.10;64.50
7202;DHT22;3642;52.506;13.304;2022-07-25T00:15:05;24.00;64.60
7202;DHT22;3642;52.506;13.304;2022-07-25T00:17:35;24.00;64.70
7202;DHT22;3642;52.506;13.304;2022-07-25T00:20:04;24.00;64.70
7202;DHT22;3642;52.506;13.304;2022-07-25T00:22:33;24.00;64.70
7202;DHT22;3642;52.506;13.304;2022-07-25T00:25:01;23.90;64.70
7202;DHT22;3642;52.506;13.304;2022-07-25T00:27:29;23.90;64.80
7202;DHT22;3642;52.506;13.304;2022-07-25T00:29:57;23.90;64.80
7202;DHT22;3642;52.506;13.304;2022-07-25T00:32:26;23.90;64.90
7202;DHT22;3642;52.506;13.304;2022-07-25T00:34:55;23.90;64.80
7202;DHT22;3642;52.506;13.304;2022-07-25T00:37:23;23.90;64.90
7202;DHT22;3642;52.506;13.304;2022-07-25T00:39:52;23.90;65.00
7202;DHT22;3642;52.506;13.304;2022-07-25T00:42:20;23.80;65.10
7202;DHT22;3642;52.506;13.304;2022-07-25T00:44:50;23.80;64.90
7202;DHT22;3642;52.506;13.304;2022-07-25T00:47:18;23.80;65.10
7202;DHT22;3642;52.506;13.304;2022-07-25T00:49:46;23.80;65.10
7202;DHT22;3642;52.506;13.304;2022-07-25T00:52:16;23.80;65.00
7202;DHT22;3642;52.506;13.304;2022-07-25T00:54:44;23.80;65.00
7202;DHT22;3642;52.506;13.304;2022-07-25T00:57:13;23.80;65.00
7202;DHT22;3642;52.506;13.304;2022-07-25T00:59:41;23.70;65.00
7202;DHT22;3642;52.506;13.304;2022-07-25T01:02:09;23.70;65.10
7202;DHT22;3642;52.506;13.304;2022-07-25T01:04:37;23.70;64.80
7202;DHT22;3642;52.506;13.304;2022-07-25T01:07:06;23.70;64.90
7202;DHT22;3642;52.506;13.304;2022-07-25T01:09:36;23.70;65.10
7202;DHT22;3642;52.506;13.304;2022-07-25T01:12:05;23.70;65.10
7202;DHT22;3642;52.506;13.304;2022-07-25T01:14:33;23.70;65.10
7202;DHT22;3642;52.506;13.304;2022-07-25T01:17:01;23.70;65.10
7202;DHT22;3642;52.506;13.304;2022-07-25T01:19:30;23.70;65.20
7202;DHT22;3642;52.506;13.304;2022-07-25T01:21:59;23.70;65.10
7202;DHT22;3642;52.506;13.304;2022-07-25T01:24:28;23.70;65.20
7202;DHT22;3642;52.506;13.304;2022-07-25T01:26:56;23.60;65.00
7202;DHT22;3642;52.506;13.304;2022-07-25T01:29:24;23.60;65.10
7202;DHT22;3642;52.506;13.304;2022-07-25T01:31:52;23.60;65.20
7202;DHT22;3642;52.506;13.304;2022-07-25T01:34:21;23.60;65.40
7202;DHT22;3642;52.506;13.304;2022-07-25T01:36:49;23.60;65.50
7202;DHT22;3642;52.506;13.304;2022-07-25T01:39:18;23.60;65.40
7202;DHT22;3642;52.506;13.304;2022-07-25T01:41:46;23.60;65.50
7202;DHT22;3642;52.506;13.304;2022-07-25T01:44:14;23.60;65.50
7202;DHT22;3642;52.506;13.304;2022-07-25T01:46:43;23.60;65.60
7202;DHT22;3642;52.506;13.304;2022-07-25T01:49:12;23.60;65.60
7202;DHT22;3642;52.506;13.304;2022-07-25T01:51:40;23.50;65.50
7202;DHT22;3642;52.506;13.304;2022-07-25T01:54:08;23.50;65.40
7202;DHT22;3642;52.506;13.304;2022-07-25T01:56:42;23.50;65.50
7202;DHT22;3642;52.506;13.304;2022-07-25T01:59:14;23.50;65.60
7202;DHT22;3642;52.506;13.304;2022-07-25T02:01:44;23.50;65.70
7202;DHT22;3642;52.506;13.304;2022-07-25T02:04:12;23.50;65.70
7202;DHT22;3642;52.506;13.304;2022-07-25T02:06:41;23.40;65.70
7202;DHT22;3642;52.506;13.304;2022-07-25T02:09:09;23.40;65.70
7202;DHT22;3642;52.506;13.304;2022-07-25T02:11:39;23.40;66.00
7202;DHT22;3642;52.506;13.304;2022-07-25T02:14:07;23.40;65.90
7202;DHT22;3642;52.506;13.304;2022-07-25T02:16:35;23.40;65.90
7202;DHT22;3642;52.506;13.304;2022-07-25T02:19:04;23.40;65.90
7202;DHT22;3642;52.506;13.304;2022-07-25T02:21:32;23.40;65.80
7202;DHT22;3642;52.506;13.304;2022-07-25T02:24:00;23.30;65.70
7202;DHT22;3642;52.506;13.304;2022-07-25T02:26:29;23.30;65.50
7202;DHT22;3642;52.506;13.304;2022-07-25T02:28:58;23.30;65.80
7202;DHT22;3642;52.506;13.304;2022-07-25T02:31:26;23.30;65.70
7202;DHT22;3642;52.506;13.304;2022-07-25T02:33:55;23.30;65.60
7202;DHT22;3642;52.506;13.304;2022-07-25T02:36:23;23.30;65.50
7202;DHT22;3642;52.506;13.304;2022-07-25T02:38:51;23.30;65.60
7202;DHT22;3642;52.506;13.304;2022-07-25T02:41:19;23.30;65.60
7202;DHT22;3642;52.506;13.304;2022-07-25T02:43:47;23.20;65.40
7202;DHT22;3642;52.506;13.304;2022-07-25T02:46:18;23.20;65.70
7202;DHT22;3642;52.506;13.304;2022-07-25T02:48:46;23.20;65.60
7202;DHT22;3642;52.506;13.304;2022-07-25T02:51:14;23.20;65.70
7202;DHT22;3642;52.506;13.304;2022-07-25T02:53:44;23.20;65.60
7202;DHT22;3642;52.506;13.304;2022-07-25T02:56:23;23.20;65.60
7202;DHT22;3642;52.506;13.304;2022-07-25T02:58:56;23.20;65.60
7202;DHT22;3642;52.506;13.304;2022-07-25T03:01:26;23.20;65.60
7202;DHT22;3642;52.506;13.304;2022-07-25T03:03:54;23.20;65.70
7202;DHT22;3642;52.506;13.304;2022-07-25T03:06:22;23.20;65.50
7202;DHT22;3642;52.506;13.304;2022-07-25T03:08:50;23.10;65.60
7202;DHT22;3642;52.506;13.304;2022-07-25T03:11:20;23.10;65.60
7202;DHT22;3642;52.506;13.304;2022-07-25T03:13:48;23.10;65.70
7202;DHT22;3642;52.506;13.304;2022-07-25T03:16:16;23.10;65.60
7202;DHT22;3642;52.506;13.304;2022-07-25T03:18:45;23.10;65.70
7202;DHT22;3642;52.506;13.304;2022-07-25T03:21:13;23.10;65.60
7202;DHT22;3642;52.506;13.304;2022-07-25T03:23:42;23.10;65.80
7202;DHT22;3642;52.506;13.304;2022-07-25T03:26:16;23.10;65.80
7202;DHT22;3642;52.506;13.304;2022-07-25T03:28:44;23.10;66.00
7202;DHT22;3642;52.506;13.304;2022-07-25T03:31:12;23.10;65.90
7202;DHT22;3642;52.506;13.304;2022-07-25T03:33:41;23.10;65.90
7202;DHT22;3642;52.506;13.304;2022-07-25T03:36:10;23.10;65.90
7202;DHT22;3642;52.506;13.304;2022-07-25T03:38:38;23.10;66.00
7202;DHT22;3642;52.506;13.304;2022-07-25T03:41:07;23.10;65.90
7202;DHT22;3642;52.506;13.304;2022-07-25T03:43:35;23.00;65.90
7202;DHT22;3642;52.506;13.304;2022-07-25T03:46:03;23.00;66.00
7202;DHT22;3642;52.506;13.304;2022-07-25T03:48:32;23.00;65.90
7202;DHT22;3642;52.506;13.304;2022-07-25T03:51:00;23.00;66.10
7202;DHT22;3642;52.506;13.304;2022-07-25T03:53:37;23.00;66.00
7202;DHT22;3642;52.506;13.304;2022-07-25T03:56:19;23.00;65.80
7202;DHT22;3642;52.506;13.304;2022-07-25T03:58:47;23.00;66.00
7202;DHT22;3642;52.506;13.304;2022-07-25T04:01:16;23.00;66.00
7202;DHT22;3642;52.506;13.304;2022-07-25T04:03:45;23.00;66.00
7202;DHT22;3642;52.506;13.304;2022-07-25T04:06:13;23.00;65.90
7202;DHT22;3642;52.506;13.304;2022-07-25T04:08:43;23.00;65.90
7202;DHT22;3642;52.506;13.304;2022-07-25T04:11:11;23.00;66.60
7202;DHT22;3642;52.506;13.304;2022-07-25T04:13:39;23.00;66.00
7202;DHT22;3642;52.506;13.304;2022-07-25T04:16:08;23.00;65.80
7202;DHT22;3642;52.506;13.304;2022-07-25T04:18:47;23.00;65.90
7202;DHT22;3642;52.506;13.304;2022-07-25T04:21:17;23.00;65.90
7202;DHT22;3642;52.506;13.304;2022-07-25T04:23:47;23.00;65.90
7202;DHT22;3642;52.506;13.304;2022-07-25T04:26:15;23.00;65.60
7202;DHT22;3642;52.506;13.304;2022-07-25T04:28:44;23.10;65.90
7202;DHT22;3642;52.506;13.304;2022-07-25T04:31:12;23.10;65.70
7202;DHT22;3642;52.506;13.304;2022-07-25T04:33:41;23.10;65.80
7202;DHT22;3642;52.506;13.304;2022-07-25T04:36:09;23.10;65.90
7202;DHT22;3642;52.506;13.304;2022-07-25T04:38:37;23.10;65.70
7202;DHT22;3642;52.506;13.304;2022-07-25T04:41:07;23.10;65.80
7202;DHT22;3642;52.506;13.304;2022-07-25T04:43:35;23.10;65.90
7202;DHT22;3642;52.506;13.304;2022-07-25T04:46:03;23.10;65.80
7202;DHT22;3642;52.506;13.304;2022-07-25T04:48:32;23.10;66.10
7202;DHT22;3642;52.506;13.304;2022-07-25T04:51:00;23.10;65.90
7202;DHT22;3642;52.506;13.304;2022-07-25T04:53:29;23.10;66.10
7202;DHT22;3642;52.506;13.304;2022-07-25T04:55:58;23.20;66.10
7202;DHT22;3642;52.506;13.304;2022-07-25T04:58:27;23.20;66.00
7202;DHT22;3642;52.506;13.304;2022-07-25T05:00:56;23.20;65.90
7202;DHT22;3642;52.506;13.304;2022-07-25T05:03:24;23.20;66.00
7202;DHT22;3642;52.506;13.304;2022-07-25T05:05:52;23.20;66.00
7202;DHT22;3642;52.506;13.304;2022-07-25T05:08:21;23.30;66.30
7202;DHT22;3642;52.506;13.304;2022-07-25T05:10:49;23.20;66.10
7202;DHT22;3642;52.506;13.304;2022-07-25T05:13:19;23.30;66.40
7202;DHT22;3642;52.506;13.304;2022-07-25T05:15:49;23.20;66.50
7202;DHT22;3642;52.506;13.304;2022-07-25T05:18:17;23.30;66.60
7202;DHT22;3642;52.506;13.304;2022-07-25T05:20:46;23.30;67.30
7202;DHT22;3642;52.506;13.304;2022-07-25T05:23:14;23.30;66.70
7202;DHT22;3642;52.506;13.304;2022-07-25T05:25:42;23.30;66.70
7202;DHT22;3642;52.506;13.304;2022-07-25T05:28:11;23.30;67.10
7202;DHT22;3642;52.506;13.304;2022-07-25T05:30:40;23.30;66.90
7202;DHT22;3642;52.506;13.304;2022-07-25T05:33:10;23.40;67.00
7202;DHT22;3642;52.506;13.304;2022-07-25T05:35:38;23.40;67.00
7202;DHT22;3642;52.506;13.304;2022-07-25T05:38:06;23.40;67.00
7202;DHT22;3642;52.506;13.304;2022-07-25T05:40:34;23.50;67.20
7202;DHT22;3642;52.506;13.304;2022-07-25T05:43:03;23.50;67.40
7202;DHT22;3642;52.506;13.304;2022-07-25T05:45:31;23.50;67.30
7202;DHT22;3642;52.506;13.304;2022-07-25T05:47:59;23.60;67.70
7202;DHT22;3642;52.506;13.304;2022-07-25T05:50:28;23.60;67.60
7202;DHT22;3642;52.506;13.304;2022-07-25T05:52:57;23.60;67.70
7202;DHT22;3642;52.506;13.304;2022-07-25T05:55:25;23.60;67.80
7202;DHT22;3642;52.506;13.304;2022-07-25T05:57:53;23.70;67.80
7202;DHT22;3642;52.506;13.304;2022-07-25T06:00:22;23.70;68.20
7202;DHT22;3642;52.506;13.304;2022-07-25T06:02:50;23.70;68.00
7202;DHT22;3642;52.506;13.304;2022-07-25T06:05:19;23.70;68.00
7202;DHT22;3642;52.506;13.304;2022-07-25T06:07:48;23.70;68.30
7202;DHT22;3642;52.506;13.304;2022-07-25T06:10:16;23.80;68.40
7202;DHT22;3642;52.506;13.304;2022-07-25T06:12:45;23.80;68.20
7202;DHT22;3642;52.506;13.304;2022-07-25T06:15:13;23.90;68.90
7202;DHT22;3642;52.506;13.304;2022-07-25T06:17:49;23.90;68.70
7202;DHT22;3642;52.506;13.304;2022-07-25T06:20:17;24.00;68.50
7202;DHT22;3642;52.506;13.304;2022-07-25T06:22:45;24.00;68.60
7202;DHT22;3642;52.506;13.304;2022-07-25T06:25:15;24.10;68.80
7202;DHT22;3642;52.506;13.304;2022-07-25T06:27:43;24.10;69.00
7202;DHT22;3642;52.506;13.304;2022-07-25T06:30:12;24.10;69.10
7202;DHT22;3642;52.506;13.304;2022-07-25T06:32:46;24.10;69.10
7202;DHT22;3642;52.506;13.304;2022-07-25T06:35:15;24.10;69.00
7202;DHT22;3642;52.506;13.304;2022-07-25T06:37:43;24.20;69.40
7202;DHT22;3642;52.506;13.304;2022-07-25T06:40:12;24.20;69.20
7202;DHT22;3642;52.506;13.304;2022-07-25T06:42:43;24.20;69.20
7202;DHT22;3642;52.506;13.304;2022-07-25T06:45:13;24.30;69.30
7202;DHT22;3642;52.506;13.304;2022-07-25T06:47:42;24.40;69.50
7202;DHT22;3642;52.506;13.304;2022-07-25T06:50:13;24.40;69.30
7202;DHT22;3642;52.506;13.304;2022-07-25T06:52:41;24.50;70.00
7202;DHT22;3642;52.506;13.304;2022-07-25T06:55:12;24.50;69.80
7202;DHT22;3642;52.506;13.304;2022-07-25T06:57:43;24.50;69.70
7202;DHT22;3642;52.506;13.304;2022-07-25T07:00:13;24.60;69.90
7202;DHT22;3642;52.506;13.304;2022-07-25T07:02:49;24.60;70.20
7202;DHT22;3642;52.506;13.304;2022-07-25T07:05:19;24.70;70.10
7202;DHT22;3642;52.506;13.304;2022-07-25T07:07:48;24.80;70.30
7202;DHT22;3642;52.506;13.304;2022-07-25T07:10:17;24.80;70.50
7202;DHT22;3642;52.506;13.304;2022-07-25T07:12:50;24.80;70.80
7202;DHT22;3642;52.506;13.304;2022-07-25T07:15:18;24.90;70.90
7202;DHT22;3642;52.506;13.304;2022-07-25T07:17:47;25.00;70.90
7202;DHT22;3642;52.506;13.304;2022-07-25T07:20:16;25.00;71.10
7202;DHT22;3642;52.506;13.304;2022-07-25T07:22:45;25.10;71.20
7202;DHT22;3642;52.506;13.304;2022-07-25T07:25:14;25.20;71.20
7202;DHT22;3642;52.506;13.304;2022-07-25T07:27:46;25.20;71.20
7202;DHT22;3642;52.506;13.304;2022-07-25T07:30:15;25.30;71.40
7202;DHT22;3642;52.506;13.304;2022-07-25T07:32:51;25.40;71.40
7202;DHT22;3642;52.506;13.304;2022-07-25T07:35:19;25.40;71.20
7202;DHT22;3642;52.506;13.304;2022-07-25T07:37:48;25.50;71.50
7202;DHT22;3642;52.506;13.304;2022-07-25T07:40:17;25.50;71.30
7202;DHT22;3642;52.506;13.304;2022-07-25T07:42:46;25.50;71.50
7202;DHT22;3642;52.506;13.304;2022-07-25T07:45:18;25.60;71.40
7202;DHT22;3642;52.506;13.304;2022-07-25T07:47:48;25.70;71.40
7202;DHT22;3642;52.506;13.304;2022-07-25T07:50:18;25.70;71.30
7202;DHT22;3642;52.506;13.304;2022-07-25T07:52:47;25.70;71.40
7202;DHT22;3642;52.506;13.304;2022-07-25T07:55:16;25.80;71.40
7202;DHT22;3642;52.506;13.304;2022-07-25T07:58:02;25.80;71.60
7202;DHT22;3642;52.506;13.304;2022-07-25T08:00:33;25.90;71.60
7202;DHT22;3642;52.506;13.304;2022-07-25T08:03:05;26.00;71.70
7202;DHT22;3642;52.506;13.304;2022-07-25T08:05:36;26.00;71.60
7202;DHT22;3642;52.506;13.304;2022-07-25T08:08:06;26.10;71.80
7202;DHT22;3642;52.506;13.304;2022-07-25T08:10:37;26.10;71.80
7202;DHT22;3642;52.506;13.304;2022-07-25T08:13:12;26.10;71.80
7202;DHT22;3642;52.506;13.304;2022-07-25T08:15:44;26.20;71.90
7202;DHT22;3642;52.506;13.304;2022-07-25T08:18:13;26.20;71.70
7202;DHT22;3642;52.506;13.304;2022-07-25T08:20:43;26.30;71.80
7202;DHT22;3642;52.506;13.304;2022-07-25T08:23:12;26.30;71.80
7202;DHT22;3642;52.506;13.304;2022-07-25T08:25:41;26.40;72.10
7202;DHT22;3642;52.506;13.304;2022-07-25T08:28:09;26.40;71.90
7202;DHT22;3642;52.506;13.304;2022-07-25T08:30:39;26.50;72.20
7202;DHT22;3642;52.506;13.304;2022-07-25T08:33:11;26.50;71.90
7202;DHT22;3642;52.506;13.304;2022-07-25T08:35:39;26.50;71.80
7202;DHT22;3642;52.506;13.304;2022-07-25T08:38:12;26.60;71.90
7202;DHT22;3642;52.506;13.304;2022-07-25T08:40:40;26.60;71.90
7202;DHT22;3642;52.506;13.304;2022-07-25T08:43:10;26.70;72.20
7202;DHT22;3642;52.506;13.304;2022-07-25T08:45:43;26.80;72.20
7202;DHT22;3642;52.506;13.304;2022-07-25T08:48:16;26.80;72.00
7202;DHT22;3642;52.506;13.304;2022-07-25T08:50:47;26.80;72.20
7202;DHT22;3642;52.506;13.304;2022-07-25T08:53:17;26.80;72.10
7202;DHT22;3642;52.506;13.304;2022-07-25T08:56:03;26.90;72.20
7202;DHT22;3642;52.506;13.304;2022-07-25T08:58:47;26.90;72.00
7202;DHT22;3642;52.506;13.304;2022-07-25T09:01:16;27.00;71.90
7202;DHT22;3642;52.506;13.304;2022-07-25T09:03:47;27.00;71.90
7202;DHT22;3642;52.506;13.304;2022-07-25T09:06:18;27.10;71.90
7202;DHT22;3642;52.506;13.304;2022-07-25T09:08:55;27.10;72.10
7202;DHT22;3642;52.506;13.304;2022-07-25T09:11:30;27.20;72.20
7202;DHT22;3642;52.506;13.304;2022-07-25T09:14:02;27.20;72.50
7202;DHT22;3642;52.506;13.304;2022-07-25T09:16:34;27.30;72.60
7202;DHT22;3642;52.506;13.304;2022-07-25T09:19:09;27.30;72.90
7202;DHT22;3642;52.506;13.304;2022-07-25T09:21:39;27.40;72.50
7202;DHT22;3642;52.506;13.304;2022-07-25T09:24:09;27.50;72.80
7202;DHT22;3642;52.506;13.304;2022-07-25T09:26:50;27.50;72.50
7202;DHT22;3642;52.506;13.304;2022-07-25T09:29:21;27.50;72.90
7202;DHT22;3642;52.506;13.304;2022-07-25T09:31:50;27.60;72.90
7202;DHT22;3642;52.506;13.304;2022-07-25T09:34:31;27.60;72.60
7202;DHT22;3642;52.506;13.304;2022-07-25T09:37:01;27.70;72.60
7202;DHT22;3642;52.506;13.304;2022-07-25T09:39:38;27.70;73.00
7202;DHT22;3642;52.506;13.304;2022-07-25T09:42:20;27.80;73.20
7202;DHT22;3642;52.506;13.304;2022-07-25T09:45:01;27.80;73.20
7202;DHT22;3642;52.506;13.304;2022-07-25T09:47:30;27.90;72.80
7202;DHT22;3642;52.506;13.304;2022-07-25T09:50:00;27.90;72.80
7202;DHT22;3642;52.506;13.304;2022-07-25T09:52:30;27.90;72.70
7202;DHT22;3642;52.506;13.304;2022-07-25T09:55:02;28.00;72.40
7202;DHT22;3642;52.506;13.304;2022-07-25T09:57:30;28.10;72.30
7202;DHT22;3642;52.506;13.304;2022-07-25T09:59:59;28.20;72.20
7202;DHT22;3642;52.506;13.304;2022-07-25T10:02:40;28.30;71.80
7202;DHT22;3642;52.506;13.304;2022-07-25T10:05:14;28.40;71.70
7202;DHT22;3642;52.506;13.304;2022-07-25T10:07:47;28.50;71.60
7202;DHT22;3642;52.506;13.304;2022-07-25T10:10:28;28.60;70.80
7202;DHT22;3642;52.506;13.304;2022-07-25T10:13:02;28.70;70.50
7202;DHT22;3642;52.506;13.304;2022-07-25T10:15:40;28.70;70.70
7202;DHT22;3642;52.506;13.304;2022-07-25T10:18:09;28.80;70.60
7202;DHT22;3642;52.506;13.304;2022-07-25T10:20:40;28.80;69.90
7202;DHT22;3642;52.506;13.304;2022-07-25T10:23:19;28.90;69.50
7202;DHT22;3642;52.506;13.304;2022-07-25T10:26:02;28.80;69.60
7202;DHT22;3642;52.506;13.304;2022-07-25T10:28:39;28.80;69.20
7202;DHT22;3642;52.506;13.304;2022-07-25T10:31:17;28.90;69.00
7202;DHT22;3642;52.506;13.304;2022-07-25T10:33:50;29.00;68.70
7202;DHT22;3642;52.506;13.304;2022-07-25T10:36:24;29.00;68.60
7202;DHT22;3642;52.506;13.304;2022-07-25T10:38:56;29.10;68.70
7202;DHT22;3642;52.506;13.304;2022-07-25T10:41:26;29.10;68.50
7202;DHT22;3642;52.506;13.304;2022-07-25T10:43:58;29.00;68.40
7202;DHT22;3642;52.506;13.304;2022-07-25T10:46:28;29.00;68.30
7202;DHT22;3642;52.506;13.304;2022-07-25T10:49:00;29.00;68.40
7202;DHT22;3642;52.506;13.304;2022-07-25T10:51:32;29.00;68.60
7202;DHT22;3642;52.506;13.304;2022-07-25T10:54:15;29.10;68.60
7202;DHT22;3642;52.506;13.304;2022-07-25T10:56:54;29.10;67.70
7202;DHT22;3642;52.506;13.304;2022-07-25T10:59:27;29.20;67.30
7202;DHT22;3642;52.506;13.304;2022-07-25T11:01:56;29.20;66.80
7202;DHT22;3642;52.506;13.304;2022-07-25T11:04:25;29.30;65.60
7202;DHT22;3642;52.506;13.304;2022-07-25T11:06:56;29.50;65.20
7202;DHT22;3642;52.506;13.304;2022-07-25T11:09:25;29.70;64.70
7202;DHT22;3642;52.506;13.304;2022-07-25T11:11:56;30.00;64.30
7202;DHT22;3642;52.506;13.304;2022-07-25T11:14:28;30.10;63.80
7202;DHT22;3642;52.506;13.304;2022-07-25T11:17:10;30.20;63.20
7202;DHT22;3642;52.506;13.304;2022-07-25T11:19:41;30.30;63.10
7202;DHT22;3642;52.506;13.304;2022-07-25T11:22:11;30.30;63.50
7202;DHT22;3642;52.506;13.304;2022-07-25T11:24:41;30.40;63.30
7202;DHT22;3642;52.506;13.304;2022-07-25T11:27:11;30.40;63.40
7202;DHT22;3642;52.506;13.304;2022-07-25T11:29:40;30.50;62.30
7202;DHT22;3642;52.506;13.304;2022-07-25T11:32:09;30.60;62.80
7202;DHT22;3642;52.506;13.304;2022-07-25T11:34:41;30.50;61.90
7202;DHT22;3642;52.506;13.304;2022-07-25T11:37:12;30.40;61.70
7202;DHT22;3642;52.506;13.304;2022-07-25T11:39:43;30.50;62.20
7202;DHT22;3642;52.506;13.304;2022-07-25T11:42:13;30.40;62.30
7202;DHT22;3642;52.506;13.304;2022-07-25T11:44:45;30.40;61.60
7202;DHT22;3642;52.506;13.304;2022-07-25T11:47:23;30.40;60.80
7202;DHT22;3642;52.506;13.304;2022-07-25T11:49:53;30.50;59.80
7202;DHT22;3642;52.506;13.304;2022-07-25T11:52:25;30.50;59.50
7202;DHT22;3642;52.506;13.304;2022-07-25T11:54:57;30.60;59.30
7202;DHT22;3642;52.506;13.304;2022-07-25T11:57:26;30.60;59.20
7202;DHT22;3642;52.506;13.304;2022-07-25T11:59:55;30.70;59.10
7202;DHT22;3642;52.506;13.304;2022-07-25T12:02:28;30.80;58.80
7202;DHT22;3642;52.506;13.304;2022-07-25T12:04:59;30.80;58.80
7202;DHT22;3642;52.506;13.304;2022-07-25T12:07:40;30.90;58.80
7202;DHT22;3642;52.506;13.304;2022-07-25T12:10:13;30.90;58.90
7202;DHT22;3642;52.506;13.304;2022-07-25T12:12:47;31.00;58.80
7202;DHT22;3642;52.506;13.304;2022-07-25T12:15:18;31.00;58.70
7202;DHT22;3642;52.506;13.304;2022-07-25T12:17:48;31.10;58.50
7202;DHT22;3642;52.506;13.304;2022-07-25T12:20:18;31.20;58.60
7202;DHT22;3642;52.506;13.304;2022-07-25T12:22:50;31.30;58.60
7202;DHT22;3642;52.506;13.304;2022-07-25T12:25:19;31.30;58.30
7202;DHT22;3642;52.506;13.304;2022-07-25T12:27:47;31.30;57.60
7202;DHT22;3642;52.506;13.304;2022-07-25T12:30:16;31.40;57.20
7202;DHT22;3642;52.506;13.304;2022-07-25T12:32:45;31.40;56.60
7202;DHT22;3642;52.506;13.304;2022-07-25T12:35:13;31.60;56.40
7202;DHT22;3642;52.506;13.304;2022-07-25T12:37:42;31.80;56.10
7202;DHT22;3642;52.506;13.304;2022-07-25T12:40:13;31.90;56.70
7202;DHT22;3642;52.506;13.304;2022-07-25T12:42:44;32.00;56.00
7202;DHT22;3642;52.506;13.304;2022-07-25T12:45:13;32.10;56.00
7202;DHT22;3642;52.506;13.304;2022-07-25T12:47:43;32.10;55.90
7202;DHT22;3642;52.506;13.304;2022-07-25T12:50:12;32.10;55.80
7202;DHT22;3642;52.506;13.304;2022-07-25T12:52:42;32.00;55.80
7202;DHT22;3642;52.506;13.304;2022-07-25T12:55:14;32.10;56.00
7202;DHT22;3642;52.506;13.304;2022-07-25T12:57:44;32.20;55.90
7202;DHT22;3642;52.506;13.304;2022-07-25T13:00:18;32.30;55.60
7202;DHT22;3642;52.506;13.304;2022-07-25T13:02:46;32.20;55.70
7202;DHT22;3642;52.506;13.304;2022-07-25T13:05:17;32.20;55.70
7202;DHT22;3642;52.506;13.304;2022-07-25T13:07:46;32.30;55.40
7202;DHT22;3642;52.506;13.304;2022-07-25T13:10:17;32.20;55.40
7202;DHT22;3642;52.506;13.304;2022-07-25T13:12:45;32.20;55.40
7202;DHT22;3642;52.506;13.304;2022-07-25T13:15:14;32.10;55.60
7202;DHT22;3642;52.506;13.304;2022-07-25T13:17:44;32.00;55.40
7202;DHT22;3642;52.506;13.304;2022-07-25T13:20:12;32.10;55.50
7202;DHT22;3642;52.506;13.304;2022-07-25T13:22:41;32.10;55.40
7202;DHT22;3642;52.506;13.304;2022-07-25T13:25:12;32.00;55.60
7202;DHT22;3642;52.506;13.304;2022-07-25T13:27:43;31.90;55.70
7202;DHT22;3642;52.506;13.304;2022-07-25T13:30:12;31.90;55.80
7202;DHT22;3642;52.506;13.304;2022-07-25T13:32:41;31.90;55.90
7202;DHT22;3642;52.506;13.304;2022-07-25T13:35:09;31.90;55.70
7202;DHT22;3642;52.506;13.304;2022-07-25T13:37:38;31.90;55.60
7202;DHT22;3642;52.506;13.304;2022-07-25T13:40:06;31.90;55.70
7202;DHT22;3642;52.506;13.304;2022-07-25T13:42:35;31.90;55.40
7202;DHT22;3642;52.506;13.304;2022-07-25T13:45:06;31.90;55.30
7202;DHT22;3642;52.506;13.304;2022-07-25T13:47:35;31.90;55.00
7202;DHT22;3642;52.506;13.304;2022-07-25T13:50:04;32.00;54.90
7202;DHT22;3642;52.506;13.304;2022-07-25T13:52:34;32.20;54.90
7202;DHT22;3642;52.506;13.304;2022-07-25T13:55:04;32.20;54.80
7202;DHT22;3642;52.506;13.304;2022-07-25T13:57:33;32.20;54.70
7202;DHT22;3642;52.506;13.304;2022-07-25T14:00:02;32.20;54.60
7202;DHT22;3642;52.506;13.304;2022-07-25T14:02:32;32.30;54.10
7202;DHT22;3642;52.506;13.304;2022-07-25T14:05:01;32.40;53.90
7202;DHT22;3642;52.506;13.304;2022-07-25T14:07:30;32.50;53.90
7202;DHT22;3642;52.506;13.304;2022-07-25T14:09:58;32.70;53.50
7202;DHT22;3642;52.506;13.304;2022-07-25T14:12:27;32.70;53.30
7202;DHT22;3642;52.506;13.304;2022-07-25T14:14:58;32.70;53.30
7202;DHT22;3642;52.506;13.304;2022-07-25T14:17:27;32.80;53.40
7202;DHT22;3642;52.506;13.304;2022-07-25T14:19:57;32.80;53.20
7202;DHT22;3642;52.506;13.304;2022-07-25T14:22:26;32.90;53.80
7202;DHT22;3642;52.506;13.304;2022-07-25T14:24:54;32.90;53.70
7202;DHT22;3642;52.506;13.304;2022-07-25T14:27:22;32.90;53.30
7202;DHT22;3642;52.506;13.304;2022-07-25T14:29:51;32.90;53.20
7202;DHT22;3642;52.506;13.304;2022-07-25T14:32:20;32.90;52.60
7202;DHT22;3642;52.506;13.304;2022-07-25T14:34:48;32.90;52.30
7202;DHT22;3642;52.506;13.304;2022-07-25T14:37:20;32.80;52.10
7202;DHT22;3642;52.506;13.304;2022-07-25T14:39:49;32.80;52.10
7202;DHT22;3642;52.506;13.304;2022-07-25T14:42:17;32.70;52.20
7202;DHT22;3642;52.506;13.304;2022-07-25T14:44:46;32.60;52.50
7202;DHT22;3642;52.506;13.304;2022-07-25T14:47:14;32.50;52.50
7202;DHT22;3642;52.506;13.304;2022-07-25T14:49:42;32.30;52.30
7202;DHT22;3642;52.506;13.304;2022-07-25T14:52:11;32.20;52.70
7202;DHT22;3642;52.506;13.304;2022-07-25T14:54:42;32.10;52.70
7202;DHT22;3642;52.506;13.304;2022-07-25T14:57:13;32.00;52.90
7202;DHT22;3642;52.506;13.304;2022-07-25T14:59:41;31.90;52.70
7202;DHT22;3642;52.506;13.304;2022-07-25T15:02:09;31.90;52.50
7202;DHT22;3642;52.506;13.304;2022-07-25T15:04:38;31.80;52.60
7202;DHT22;3642;52.506;13.304;2022-07-25T15:07:07;31.80;52.50
7202;DHT22;3642;52.506;13.304;2022-07-25T15:09:36;31.80;52.50
7202;DHT22;3642;52.506;13.304;2022-07-25T15:12:07;31.80;52.60
7202;DHT22;3642;52.506;13.304;2022-07-25T15:14:42;31.80;52.30
7202;DHT22;3642;52.506;13.304;2022-07-25T15:17:11;31.90;52.30
7202;DHT22;3642;52.506;13.304;2022-07-25T15:19:40;32.10;52.10
7202;DHT22;3642;52.506;13.304;2022-07-25T15:22:08;32.20;52.10
7202;DHT22;3642;52.506;13.304;2022-07-25T15:24:36;32.30;52.20
7202;DHT22;3642;52.506;13.304;2022-07-25T15:27:26;32.40;52.00
7202;DHT22;3642;52.506;13.304;2022-07-25T15:29:54;32.50;52.10
7202;DHT22;3642;52.506;13.304;2022-07-25T15:32:23;32.50;52.20
7202;DHT22;3642;52.506;13.304;2022-07-25T15:34:51;32.50;52.10
7202;DHT22;3642;52.506;13.304;2022-07-25T15:37:19;32.50;52.20
7202;DHT22;3642;52.506;13.304;2022-07-25T15:39:48;32.50;52.20
7202;DHT22;3642;52.506;13.304;2022-07-25T15:42:17;32.50;52.20
7202;DHT22;3642;52.506;13.304;2022-07-25T15:44:47;32.60;52.20
7202;DHT22;3642;52.506;13.304;2022-07-25T15:47:35;32.90;51.70
7202;DHT22;3642;52.506;13.304;2022-07-25T15:50:04;33.10;51.80
7202;DHT22;3642;52.506;13.304;2022-07-25T15:52:33;33.20;51.60
7202;DHT22;3642;52.506;13.304;2022-07-25T15:55:01;33.10;51.70
7202;DHT22;3642;52.506;13.304;2022-07-25T15:57:30;33.20;51.70
7202;DHT22;3642;52.506;13.304;2022-07-25T16:00:00;33.20;51.50
7202;DHT22;3642;52.506;13.304;2022-07-25T16:02:29;33.20;52.00